Time;durP1;ratioP1;P1;durP2;ratioP2;P2;SDS_P1;SDS_P2;PMS_P1;PMS_P2;Temp;Humidity;BMP_temperature;BMP_pressure;BME280_temperature;BME280_humidity;BME280_pressure;Samples;Min_cycle;Max_cycle;Signal;HPM_P1;HPM_P2
2022/09/02 00:01:30;;;;;;;7.18;2.65;;;;;;;15.19;95.64;96749.94;4971510;28;20076;-76
2022/09/02 00:04:00;;;;;;;5.00;2.42;;;;;;;15.15;96.63;96750.75;4992155;28;20081;-76
2022/09/02 00:06:27;;;;;;;4.13;2.20;;;;;;;15.12;96.04;96749.41;4975158;28;20061;-76
2022/09/02 00:08:52;;;;;;;8.95;2.72;;;;;;;15.12;96.90;96744.03;4977837;28;20626;-76
2022/09/02 00:11:23;;;;;;;5.47;2.40;;;;;;;15.14;96.65;96749.94;4974626;28;20038;-76
2022/09/02 00:13:49;;;;;;;8.90;2.53;;;;;;;15.07;96.72;96746.69;4979104;28;20362;-76
2022/09/02 00:16:16;;;;;;;8.70;2.53;;;;;;;15.02;97.21;96738.63;4976002;28;20441;-76
2022/09/02 00:18:43;;;;;;;4.63;2.30;;;;;;;15.07;96.21;96741.31;4975319;28;20078;-76
2022/09/02 00:21:10;;;;;;;6.43;2.50;;;;;;;14.98;97.35;96735.66;4975810;28;20045;-76
2022/09/02 00:23:37;;;;;;;8.45;2.53;;;;;;;15.03;96.57;96734.88;4976222;28;20481;-76
2022/09/02 00:26:03;;;;;;;12.60;2.90;;;;;;;14.98;97.65;96738.34;4977098;28;20334;-76
2022/09/02 00:28:29;;;;;;;3.85;1.95;;;;;;;14.92;97.69;96731.34;4973511;28;20045;-76
2022/09/02 00:30:55;;;;;;;5.10;2.40;;;;;;;14.92;97.63;96727.84;4992467;28;20069;-75
2022/09/02 00:33:23;;;;;;;9.52;2.40;;;;;;;14.91;98.19;96728.91;4988715;28;20812;-76
2022/09/02 00:35:49;;;;;;;4.60;2.25;;;;;;;14.89;97.04;96729.19;4977727;28;20580;-75
2022/09/02 00:38:15;;;;;;;6.65;2.40;;;;;;;14.87;97.24;96730.56;4990616;28;20039;-75
2022/09/02 00:40:46;;;;;;;7.95;2.40;;;;;;;14.75;98.87;96720.84;4976555;28;20034;-75
2022/09/02 00:43:22;;;;;;;9.13;2.60;;;;;;;14.74;98.68;96724.59;4973939;28;20291;-75
2022/09/02 00:45:48;;;;;;;9.52;2.50;;;;;;;14.60;99.29;96726.19;4976938;28;20296;-75
2022/09/02 00:48:13;;;;;;;7.47;2.70;;;;;;;14.55;98.65;96718.09;4974897;28;20045;-75
2022/09/02 00:50:39;;;;;;;4.88;2.15;;;;;;;14.52;100.00;96713.25;4974627;28;20129;-75
2022/09/02 00:53:08;;;;;;;5.82;2.38;;;;;;;14.46;99.25;96709.75;4975049;28;20673;-76
2022/09/02 00:55:40;;;;;;;6.30;2.35;;;;;;;14.40;100.00;96721.56;4974628;28;20088;-76
2022/09/02 00:58:08;;;;;;;;;;;;;;;14.39;100.00;96724.50;4973993;28;20034;-76
2022/09/02 01:00:38;;;;;;;9.60;2.92;;;;;;;14.32;100.00;96719.41;4974497;28;20274;-76
2022/09/02 01:03:07;;;;;;;6.75;2.67;;;;;;;14.25;100.00;96718.84;4989472;28;20077;-76
2022/09/02 01:05:37;;;;;;;6.07;2.20;;;;;;;14.21;100.00;96712.38;4975021;28;20046;-76
2022/09/02 01:08:06;;;;;;;7.22;2.60;;;;;;;14.23;100.00;96710.22;4974826;28;20049;-76
2022/09/02 01:10:33;;;;;;;8.13;2.28;;;;;;;14.22;100.00;96714.78;4975402;28;20046;-75
2022/09/02 01:13:07;;;;;;;5.93;2.35;;;;;;;14.08;100.00;96708.28;4975583;28;20034;-76
2022/09/02 01:15:36;;;;;;;5.88;2.45;;;;;;;14.02;100.00;96720.13;4972978;28;20045;-76
2022/09/02 01:18:05;;;;;;;9.30;2.63;;;;;;;13.92;100.00;96715.50;4957811;28;20035;-75
2022/09/02 01:20:34;;;;;;;6.93;2.17;;;;;;;13.87;100.00;96706.59;4974937;28;20034;-76
2022/09/02 01:23:01;;;;;;;5.47;2.08;;;;;;;13.79;100.00;96704.44;4989557;28;20042;-75
2022/09/02 01:25:31;;;;;;;7.82;2.30;;;;;;;13.75;100.00;96711.38;4972980;28;20450;-75
2022/09/02 01:28:02;;;;;;;6.55;2.40;;;;;;;13.76;100.00;96718.38;4978901;28;20099;-75
2022/09/02 01:30:29;;;;;;;6.47;2.10;;;;;;;13.70;100.00;96711.38;4973301;28;20034;-75
2022/09/02 01:32:55;;;;;;;7.30;2.35;;;;;;;13.66;100.00;96709.19;4974432;28;20084;-75
2022/09/02 01:35:21;;;;;;;6.65;2.17;;;;;;;13.60;100.00;96706.75;4975588;28;20034;-75
2022/09/02 01:37:47;;;;;;;7.75;2.40;;;;;;;13.60;100.00;96715.63;4989384;28;20034;-75
2022/09/02 01:40:15;;;;;;;4.63;2.40;;;;;;;13.59;100.00;96705.13;4972319;28;20108;-75
2022/09/02 01:42:43;;;;;;;6.35;2.65;;;;;;;13.61;100.00;96701.09;4973354;28;20327;-75
2022/09/02 01:45:09;;;;;;;5.15;2.13;;;;;;;13.59;100.00;96700.56;4989780;28;20292;-75
2022/09/02 01:47:36;;;;;;;6.82;2.30;;;;;;;13.56;100.00;96690.34;4974324;28;20046;-76
2022/09/02 01:50:05;;;;;;;10.68;2.28;;;;;;;13.49;100.00;96689.75;4990827;28;20046;-75
2022/09/02 01:52:30;;;;;;;6.65;2.30;;;;;;;13.52;100.00;96699.16;4974786;28;20038;-75
2022/09/02 01:54:56;;;;;;;8.77;2.20;;;;;;;13.49;100.00;96683.56;4975725;28;20053;-76
2022/09/02 01:57:23;;;;;;;10.57;2.70;;;;;;;13.47;100.00;96693.78;4973251;28;20045;-76
2022/09/02 01:59:51;;;;;;;5.25;2.30;;;;;;;13.44;100.00;96691.59;4973592;28;20038;-75
2022/09/02 02:02:19;;;;;;;6.90;2.28;;;;;;;13.42;100.00;96699.94;4970786;28;20066;-75
2022/09/02 02:04:47;;;;;;;8.40;2.50;;;;;;;13.36;100.00;96691.03;4957689;28;20501;-75
2022/09/02 02:07:16;;;;;;;5.55;2.10;;;;;;;13.34;100.00;96692.38;4989180;28;20370;-75
2022/09/02 02:09:42;;;;;;;7.57;2.53;;;;;;;13.34;100.00;96690.47;4975432;28;20410;-75
2022/09/02 02:12:11;;;;;;;6.57;2.28;;;;;;;13.31;100.00;96693.69;4969847;28;20040;-75
2022/09/02 02:14:37;;;;;;;4.82;1.80;;;;;;;13.26;100.00;96687.47;4974114;28;20034;-75
2022/09/02 02:17:03;;;;;;;5.32;2.38;;;;;;;13.17;100.00;96691.69;4988611;28;20044;-75
2022/09/02 02:19:29;;;;;;;4.70;2.13;;;;;;;13.09;100.00;96683.03;4989177;28;20030;-76
2022/09/02 02:21:54;;;;;;;6.03;2.35;;;;;;;13.08;100.00;96686.00;4988968;28;20274;-75
2022/09/02 02:24:20;;;;;;;12.25;2.88;;;;;;;12.98;100.00;96689.41;4974612;28;20049;-75
2022/09/02 02:26:46;;;;;;;4.60;2.28;;;;;;;12.92;100.00;96690.47;4972414;28;20390;-75
2022/09/02 02:29:13;;;;;;;5.90;2.53;;;;;;;12.97;100.00;96687.78;4973164;28;20038;-76
2022/09/02 02:31:39;;;;;;;6.40;2.10;;;;;;;12.99;100.00;96687.53;4971738;28;20050;-75
2022/09/02 02:34:06;;;;;;;7.30;2.03;;;;;;;13.00;100.00;96691.84;4973863;28;20108;-76
2022/09/02 02:36:32;;;;;;;6.45;2.20;;;;;;;12.95;100.00;96686.44;4973753;28;20026;-76
2022/09/02 02:39:00;;;;;;;8.35;2.38;;;;;;;12.94;100.00;96685.63;4973890;28;20256;-75
2022/09/02 02:41:26;;;;;;;6.65;2.58;;;;;;;12.89;100.00;96674.03;4987271;28;20500;-75
2022/09/02 02:43:53;;;;;;;6.68;2.58;;;;;;;12.86;100.00;96682.63;4988721;28;20041;-75
2022/09/02 02:46:18;;;;;;;4.65;2.28;;;;;;;12.79;100.00;96685.50;4988576;28;20034;-75
2022/09/02 02:48:44;;;;;;;6.50;2.38;;;;;;;12.80;100.00;96677.19;4973111;28;20070;-75
2022/09/02 02:51:10;;;;;;;8.00;2.35;;;;;;;12.79;100.00;96678.25;4969091;28;20509;-75
2022/09/02 02:53:36;;;;;;;5.35;2.30;;;;;;;12.81;100.00;96678.81;4989022;28;20034;-75
2022/09/02 02:56:04;;;;;;;6.35;2.20;;;;;;;12.85;100.00;96678.31;4974218;28;20060;-74
2022/09/02 02:58:30;;;;;;;8.32;2.38;;;;;;;12.85;100.00;96684.50;4970843;28;20122;-74
2022/09/02 03:00:56;;;;;;;10.88;2.63;;;;;;;12.88;100.00;96678.59;4989710;28;20042;-75
2022/09/02 03:03:23;;;;;;;9.63;2.40;;;;;;;12.86;100.00;96675.38;4971542;28;20055;-75
2022/09/02 03:05:53;;;;;;;4.35;2.10;;;;;;;12.86;100.00;96686.09;4990679;28;20045;-75
2022/09/02 03:08:20;;;;;;;6.07;2.30;;;;;;;12.79;100.00;96686.31;4972250;28;20060;-75
2022/09/02 03:10:53;;;;;;;7.35;2.40;;;;;;;12.77;100.00;96674.22;4959465;28;20061;-75
2022/09/02 03:13:21;;;;;;;12.55;3.00;;;;;;;12.76;100.00;96680.63;4973692;28;20547;-76
2022/09/02 03:15:47;;;;;;;5.75;2.42;;;;;;;12.74;100.00;96678.22;4989504;28;20041;-76
2022/09/02 03:18:14;;;;;;;4.30;2.38;;;;;;;12.73;100.00;96675.78;4987683;28;20042;-76
2022/09/02 03:20:41;;;;;;;4.75;2.28;;;;;;;12.72;100.00;96676.84;4975428;28;20128;-75
2022/09/02 03:23:08;;;;;;;7.88;2.85;;;;;;;12.68;100.00;96673.06;4971184;28;20418;-76
2022/09/02 03:25:34;;;;;;;7.88;2.50;;;;;;;12.66;100.00;96675.19;4973877;28;20050;-75
2022/09/02 03:28:03;;;;;;;7.40;2.40;;;;;;;12.61;100.00;96670.59;4990601;28;20077;-75
2022/09/02 03:30:31;;;;;;;6.65;2.83;;;;;;;12.62;100.00;96671.41;4973244;28;20097;-75
2022/09/02 03:32:58;;;;;;;4.38;2.17;;;;;;;12.53;100.00;96666.53;4989579;28;20160;-75
2022/09/02 03:35:26;;;;;;;7.18;2.67;;;;;;;12.46;100.00;96671.28;4986861;28;20343;-76
2022/09/02 03:37:52;;;;;;;5.90;2.30;;;;;;;12.46;100.00;96670.47;4990004;28;20114;-75
2022/09/02 03:40:24;;;;;;;4.45;2.20;;;;;;;12.37;100.00;96672.78;4992448;28;20604;-76
2022/09/02 03:42:55;;;;;;;6.93;2.63;;;;;;;12.29;100.00;96675.94;4975974;28;20046;-76
2022/09/02 03:45:21;;;;;;;5.22;2.75;;;;;;;12.26;100.00;96671.09;4975584;28;20527;-76
2022/09/02 03:47:52;;;;;;;7.70;2.50;;;;;;;12.17;100.00;96673.41;4992539;28;20035;-76
2022/09/02 03:50:24;;;;;;;5.80;2.50;;;;;;;12.16;100.00;96665.63;4990552;28;20141;-76
2022/09/02 03:52:51;;;;;;;5.38;2.70;;;;;;;12.16;100.00;96665.63;4993121;28;20489;-76
2022/09/02 03:55:18;;;;;;;9.73;2.70;;;;;;;12.17;100.00;96661.88;4975156;28;20252;-76
2022/09/02 03:57:45;;;;;;;5.00;2.60;;;;;;;12.19;100.00;96660.56;4977372;28;20436;-75
2022/09/02 04:00:13;;;;;;;8.18;2.92;;;;;;;12.18;100.00;96663.50;4991846;28;20400;-76
2022/09/02 04:02:40;;;;;;;11.38;2.70;;;;;;;12.16;100.00;96663.75;4976158;28;20223;-76
2022/09/02 04:05:08;;;;;;;10.63;2.85;;;;;;;12.20;100.00;96661.38;4976139;28;20134;-76
2022/09/02 04:07:34;;;;;;;5.40;2.47;;;;;;;12.15;100.00;96664.00;4975067;28;20133;-76
2022/09/02 04:10:00;;;;;;;8.45;3.20;;;;;;;12.20;100.00;96664.84;4993452;28;20043;-76
2022/09/02 04:12:26;;;;;;;4.18;2.53;;;;;;;12.13;100.00;96666.13;4975298;28;20038;-76
2022/09/02 04:14:52;;;;;;;5.55;2.40;;;;;;;12.15;100.00;96672.06;4978211;28;20065;-75
2022/09/02 04:17:18;;;;;;;4.80;2.80;;;;;;;12.13;100.00;96666.13;4974353;28;20271;-75
2022/09/02 04:19:43;;;;;;;4.55;2.25;;;;;;;12.10;100.00;96667.44;4992777;28;20038;-75
2022/09/02 04:22:09;;;;;;;9.48;3.00;;;;;;;12.13;100.00;96663.44;4976156;28;20413;-76
2022/09/02 04:24:37;;;;;;;5.03;2.60;;;;;;;12.21;100.00;96658.41;4975880;28;20149;-75
2022/09/02 04:27:03;;;;;;;11.00;3.00;;;;;;;12.26;100.00;96663.84;4977000;28;20046;-75
2022/09/02 04:29:31;;;;;;;4.50;2.58;;;;;;;12.27;100.00;96654.72;4990772;28;20058;-76
2022/09/02 04:31:58;;;;;;;4.82;2.45;;;;;;;12.28;100.00;96661.72;4989502;28;20057;-75
2022/09/02 04:34:24;;;;;;;7.03;2.90;;;;;;;12.27;100.00;96657.41;4990152;28;20117;-75
2022/09/02 04:36:51;;;;;;;6.63;3.08;;;;;;;12.34;100.00;96657.22;4972860;28;20066;-75
2022/09/02 04:39:19;;;;;;;7.22;2.42;;;;;;;12.41;100.00;96649.75;4975081;28;20041;-75
2022/09/02 04:41:45;;;;;;;5.35;2.40;;;;;;;12.48;100.00;96647.69;4989653;28;20038;-75
2022/09/02 04:44:12;;;;;;;6.80;2.78;;;;;;;12.54;100.00;96654.72;4974681;28;20040;-75
2022/09/02 04:46:41;;;;;;;5.68;2.67;;;;;;;12.56;100.00;96654.44;4991533;28;20205;-75
2022/09/02 04:49:11;;;;;;;5.97;2.45;;;;;;;12.58;100.00;96662.25;4990200;28;20077;-75
2022/09/02 04:51:38;;;;;;;6.47;2.70;;;;;;;12.63;100.00;96659.63;4973898;28;20077;-75
2022/09/02 04:54:06;;;;;;;5.60;2.70;;;;;;;12.65;100.00;96660.16;4990434;28;20034;-75
2022/09/02 04:56:33;;;;;;;5.03;2.53;;;;;;;12.73;100.00;96654.31;4990429;28;20113;-75
2022/09/02 04:59:01;;;;;;;7.30;2.70;;;;;;;12.79;100.00;96661.34;4992522;28;20157;-75
2022/09/02 05:01:31;;;;;;;10.27;2.80;;;;;;;12.81;100.00;96659.19;4988766;28;20046;-75
2022/09/02 05:04:00;;;;;;;7.30;2.55;;;;;;;12.88;100.00;96672.41;4992139;28;20529;-75
2022/09/02 05:06:32;;;;;;;7.20;2.53;;;;;;;12.88;100.00;96662.47;4974417;28;20124;-75
2022/09/02 05:09:01;;;;;;;5.28;2.42;;;;;;;12.93;100.00;96661.72;4992728;28;20034;-75
2022/09/02 05:11:32;;;;;;;8.25;2.95;;;;;;;13.01;100.00;96661.25;4957147;28;20433;-75
2022/09/02 05:14:01;;;;;;;12.30;2.70;;;;;;;13.09;100.00;96658.88;4976655;28;20046;-76
2022/09/02 05:16:31;;;;;;;8.73;2.50;;;;;;;13.17;100.00;96664.81;4989131;28;20145;-76
2022/09/02 05:18:59;;;;;;;4.22;2.60;;;;;;;13.20;100.00;96657.06;4975798;28;20073;-76
2022/09/02 05:21:31;;;;;;;4.72;2.28;;;;;;;13.24;100.00;96660.88;4974297;28;20108;-76
2022/09/02 05:23:58;;;;;;;5.28;2.40;;;;;;;13.29;100.00;96660.88;4975335;28;20112;-76
2022/09/02 05:26:24;;;;;;;8.68;2.30;;;;;;;13.35;100.00;96656.34;4974360;28;20608;-75
2022/09/02 05:28:52;;;;;;;6.90;3.15;;;;;;;13.38;100.00;96661.19;4975034;28;20117;-76
2022/09/02 05:31:19;;;;;;;10.50;2.55;;;;;;;13.43;100.00;96668.47;4974124;28;20039;-76
2022/09/02 05:33:47;;;;;;;6.15;2.50;;;;;;;13.50;100.00;96658.31;4974443;28;20239;-77
2022/09/02 05:36:19;;;;;;;11.68;2.40;;;;;;;13.56;100.00;96666.13;4973305;28;20056;-76
2022/09/02 05:38:49;;;;;;;8.10;2.60;;;;;;;13.61;100.00;96658.06;4990125;28;20101;-76
2022/09/02 05:41:22;;;;;;;6.75;2.60;;;;;;;13.74;100.00;96659.47;4973009;28;20136;-76
2022/09/02 05:43:51;;;;;;;5.90;2.40;;;;;;;13.75;100.00;96661.09;4974164;28;20042;-76
2022/09/02 05:46:21;;;;;;;13.00;2.65;;;;;;;13.84;100.00;96656.81;4973873;28;20117;-76
2022/09/02 05:49:11;;;;;;;7.50;2.53;;;;;;;13.93;100.00;96660.63;4989233;28;20089;-76
2022/09/02 05:51:56;;;;;;;15.25;3.83;;;;;;;14.01;100.00;96648.56;4988609;28;20034;-76
2022/09/02 05:54:30;;;;;;;6.60;2.30;;;;;;;14.09;100.00;96653.41;4972921;28;20050;-76
2022/09/02 05:57:03;;;;;;;4.35;2.33;;;;;;;14.14;100.00;96652.59;4972573;28;20038;-76
2022/09/02 05:59:30;;;;;;;6.38;2.42;;;;;;;14.07;100.00;96657.41;4972979;28;20042;-76
2022/09/02 06:01:58;;;;;;;6.20;2.33;;;;;;;14.09;100.00;96664.19;4973202;28;20077;-76
2022/09/02 06:04:24;;;;;;;6.10;2.65;;;;;;;14.20;100.00;96663.13;4971993;28;20039;-76
2022/09/02 06:06:50;;;;;;;4.75;2.33;;;;;;;14.39;100.00;96666.09;4972988;28;20330;-76
2022/09/02 06:09:21;;;;;;;7.18;3.25;;;;;;;14.54;100.00;96662.63;4990164;28;20049;-75
2022/09/02 06:11:50;;;;;;;8.52;2.67;;;;;;;14.67;100.00;96664.00;4971057;28;20057;-76
2022/09/02 06:14:23;;;;;;;7.63;2.30;;;;;;;14.64;100.00;96654.59;4971956;28;20045;-76
2022/09/02 06:16:52;;;;;;;8.85;2.30;;;;;;;14.74;100.00;96649.19;4972643;28;20034;-76
2022/09/02 06:19:26;;;;;;;5.93;2.47;;;;;;;14.81;100.00;96658.88;4973270;28;20489;-76
2022/09/02 06:21:55;;;;;;;11.27;2.30;;;;;;;14.92;100.00;96652.41;4988438;28;20165;-76
2022/09/02 06:24:24;;;;;;;9.02;2.38;;;;;;;14.99;100.00;96647.53;4956079;28;20491;-76
2022/09/02 06:26:52;;;;;;;9.50;2.40;;;;;;;15.01;100.00;96654.25;4975573;28;20100;-75
2022/09/02 06:29:19;;;;;;;7.20;2.33;;;;;;;15.04;100.00;96655.63;4973554;28;20169;-75
2022/09/02 06:31:48;;;;;;;4.70;2.17;;;;;;;15.15;100.00;96651.03;4972939;28;20046;-76
2022/09/02 06:34:16;;;;;;;4.82;2.08;;;;;;;15.21;100.00;96653.44;4971693;28;20485;-76
2022/09/02 06:36:45;;;;;;;9.77;2.65;;;;;;;15.31;100.00;96661.50;4989678;28;20042;-76
2022/09/02 06:39:15;;;;;;;12.07;2.90;;;;;;;15.43;100.00;96657.72;4988816;28;20053;-76
2022/09/02 06:41:42;;;;;;;4.78;2.33;;;;;;;15.55;100.00;96658.19;4972742;28;20448;-77
2022/09/02 06:44:11;;;;;;;8.23;2.35;;;;;;;15.60;100.00;96656.28;4972579;28;20050;-77
2022/09/02 06:46:43;;;;;;;5.68;2.22;;;;;;;15.61;100.00;96659.81;4973061;28;20187;-77
2022/09/02 06:49:15;;;;;;;9.05;2.22;;;;;;;15.61;100.00;96662.53;4973165;28;20042;-77
2022/09/02 06:51:43;;;;;;;4.75;2.10;;;;;;;15.74;100.00;96661.94;4972411;28;20046;-77
2022/09/02 06:54:14;;;;;;;10.25;2.40;;;;;;;15.67;100.00;96661.44;4989908;28;20034;-77
2022/09/02 06:56:39;;;;;;;4.55;2.20;;;;;;;15.65;100.00;96655.50;4972307;28;20639;-76
2022/09/02 06:59:06;;;;;;;8.93;2.40;;;;;;;15.51;100.00;96654.44;4988969;28;20525;-76
2022/09/02 07:01:40;;;;;;;8.10;2.80;;;;;;;15.55;100.00;96666.28;4972505;28;20579;-76
2022/09/02 07:06:53;;;;;;;7.45;2.50;;;;;;;15.44;100.00;96653.91;4991407;28;20062;-76
2022/09/02 07:09:29;;;;;;;7.00;2.08;;;;;;;15.60;100.00;96664.38;4973386;28;20448;-76
2022/09/02 07:11:57;;;;;;;9.65;2.30;;;;;;;15.75;100.00;96658.16;4989751;28;20044;-76
2022/09/02 07:14:26;;;;;;;4.63;2.53;;;;;;;15.95;99.24;96657.25;4972983;28;20046;-76
2022/09/02 07:16:56;;;;;;;8.10;2.55;;;;;;;16.02;99.31;96657.75;4972994;28;20056;-76
2022/09/02 07:19:26;;;;;;;8.88;2.40;;;;;;;16.24;97.91;96660.06;4972974;28;20038;-76
2022/09/02 07:21:53;;;;;;;4.95;2.13;;;;;;;16.52;95.91;96647.72;4971739;28;20113;-76
2022/09/02 07:24:21;;;;;;;9.77;2.60;;;;;;;16.56;95.12;96648.75;4973824;28;20125;-76
2022/09/02 07:26:47;;;;;;;7.28;2.40;;;;;;;16.63;94.78;96643.03;4989036;28;20122;-76
2022/09/02 07:29:15;;;;;;;7.22;2.50;;;;;;;16.73;94.40;96642.19;4989952;28;20042;-76
2022/09/02 07:31:45;;;;;;;6.85;2.13;;;;;;;16.76;94.49;96636.22;4953838;28;20281;-76
2022/09/02 07:34:14;;;;;;;3.85;2.00;;;;;;;16.60;94.91;96644.41;4971810;28;20058;-75
2022/09/02 07:36:41;;;;;;;7.47;2.22;;;;;;;16.26;95.78;96644.38;4955345;28;20368;-76
2022/09/02 07:39:09;;;;;;;4.93;2.50;;;;;;;16.26;95.80;96647.06;4954684;28;20512;-76
2022/09/02 07:41:36;;;;;;;5.47;2.28;;;;;;;16.23;96.33;96644.94;4953417;28;20049;-75
2022/09/02 07:44:04;;;;;;;4.75;2.20;;;;;;;16.20;96.95;96648.22;4957039;28;20053;-76
2022/09/02 07:46:31;;;;;;;6.57;3.05;;;;;;;16.37;95.99;96645.13;4955729;28;20035;-77
2022/09/02 07:48:58;;;;;;;12.43;2.60;;;;;;;16.50;95.49;96636.41;4971057;28;20478;-76
2022/09/02 07:51:24;;;;;;;9.88;2.40;;;;;;;16.52;95.40;96646.91;4954459;28;20051;-77
2022/09/02 07:53:50;;;;;;;5.85;2.20;;;;;;;16.56;94.90;96648.75;4971187;28;20449;-77
2022/09/02 07:56:16;;;;;;;5.57;2.22;;;;;;;16.71;95.14;96650.56;4968469;28;20122;-77
2022/09/02 07:58:44;;;;;;;4.80;1.90;;;;;;;16.87;93.76;96648.53;4954082;28;20577;-77
2022/09/02 08:01:12;;;;;;;6.57;2.40;;;;;;;16.93;93.63;96642.00;4973192;28;20393;-77
2022/09/02 08:03:43;;;;;;;12.82;2.28;;;;;;;17.00;91.96;96647.88;4989592;28;20139;-77
2022/09/02 08:06:10;;;;;;;5.03;2.20;;;;;;;17.00;92.54;96642.47;4975892;28;20050;-76
2022/09/02 08:08:36;;;;;;;6.90;1.92;;;;;;;17.03;92.26;96641.09;4970883;28;20525;-77
2022/09/02 08:11:03;;;;;;;8.65;2.15;;;;;;;16.99;92.34;96641.69;4975804;28;20096;-77
2022/09/02 08:13:29;;;;;;;9.90;2.33;;;;;;;17.10;91.60;96649.69;4989314;28;20388;-77
2022/09/02 08:15:54;;;;;;;9.75;2.00;;;;;;;17.26;90.87;96651.13;4974529;28;20132;-77
2022/09/02 08:18:20;;;;;;;8.73;2.17;;;;;;;17.39;89.03;96649.66;4972205;28;20043;-77
2022/09/02 08:20:48;;;;;;;5.57;2.40;;;;;;;17.29;89.54;96652.50;4972780;28;20053;-77
2022/09/02 08:23:14;;;;;;;6.32;2.00;;;;;;;17.25;90.43;96644.13;4972909;28;20145;-77
2022/09/02 08:25:40;;;;;;;7.43;2.97;;;;;;;17.33;89.49;96640.78;4977605;28;20520;-77
2022/09/02 08:28:06;;;;;;;5.70;2.30;;;;;;;17.24;87.34;96640.63;4977947;28;20038;-77
2022/09/02 08:30:35;;;;;;;7.10;2.17;;;;;;;17.31;89.21;96643.00;4976765;28;20045;-75
2022/09/02 08:33:00;;;;;;;3.60;2.00;;;;;;;17.58;90.60;96644.31;4976442;28;20051;-75
2022/09/02 08:35:26;;;;;;;5.97;2.50;;;;;;;17.82;88.94;96642.44;4977575;28;20647;-75
2022/09/02 08:37:51;;;;;;;4.88;1.95;;;;;;;17.90;85.95;96641.78;4976297;28;20857;-75
2022/09/02 08:40:21;;;;;;;4.82;2.03;;;;;;;17.78;87.02;96644.91;4977843;28;20049;-74
2022/09/02 08:42:51;;;;;;;5.67;2.17;;;;;;;18.15;100.00;96646.06;4977654;28;20609;-75
2022/09/02 08:45:41;;;;;;;11.93;2.17;;;;;;;17.91;85.59;96634.47;4976807;28;20042;-75
2022/09/02 08:48:20;;;;;;;3.85;2.00;;;;;;;17.84;92.11;96644.84;4973553;28;20646;-75
2022/09/02 08:50:48;;;;;;;6.03;2.13;;;;;;;18.06;86.88;96636.97;4992754;28;20061;-75
2022/09/02 08:53:35;;;;;;;5.18;2.10;;;;;;;18.34;92.96;96636.00;4992815;28;20081;-74
2022/09/02 08:56:04;;;;;;;6.20;2.22;;;;;;;18.40;92.17;96628.63;4977264;28;20121;-75
2022/09/02 08:58:38;;;;;;;7.63;2.22;;;;;;;18.21;91.51;96630.53;4975298;28;20062;-74
2022/09/02 09:01:33;;;;;;;6.30;2.33;;;;;;;18.25;86.12;96628.84;4976737;28;20045;-75
2022/09/02 09:04:10;;;;;;;12.73;4.07;;;;;;;18.09;84.95;96631.78;4977868;28;20046;-75
2022/09/02 09:06:59;;;;;;;5.63;2.00;;;;;;;18.10;82.70;96627.16;4976635;28;20050;-75
2022/09/02 09:09:46;;;;;;;4.78;2.22;;;;;;;18.22;84.27;96624.03;4991116;28;20041;-75
2022/09/02 09:12:35;;;;;;;6.90;2.20;;;;;;;18.45;91.22;96625.84;4989916;28;20042;-74
2022/09/02 09:15:08;;;;;;;5.78;1.98;;;;;;;18.62;81.84;96622.59;4977236;28;20227;-75
2022/09/02 09:17:43;;;;;;;4.45;2.17;;;;;;;18.49;81.40;96624.16;4976784;28;20147;-74
2022/09/02 09:20:20;;;;;;;6.82;2.20;;;;;;;18.57;88.86;96623.47;4975703;28;20105;-75
2022/09/02 09:22:48;;;;;;;8.05;2.00;;;;;;;18.54;81.02;96624.06;4975731;28;20046;-74
2022/09/02 09:25:15;;;;;;;4.65;2.38;;;;;;;18.55;81.48;96622.97;4975948;28;20117;-75
2022/09/02 09:27:44;;;;;;;4.93;1.98;;;;;;;18.74;82.07;96614.03;4974821;28;20124;-75
2022/09/02 09:30:10;;;;;;;8.38;2.17;;;;;;;18.88;79.96;96614.88;4976583;28;20053;-75
2022/09/02 09:32:48;;;;;;;3.70;1.75;;;;;;;19.03;78.46;96611.91;4972493;28;20054;-75
2022/09/02 09:35:17;;;;;;;9.10;2.30;;;;;;;19.48;77.85;96595.88;4987999;28;20575;-75
2022/09/02 09:37:49;;;;;;;8.10;2.15;;;;;;;19.56;73.19;96611.44;4975603;28;20137;-74
2022/09/02 09:40:29;;;;;;;3.63;1.50;;;;;;;19.47;72.31;96605.13;4971291;28;20046;-75
2022/09/02 09:43:11;;;;;;;4.60;2.00;;;;;;;19.43;84.48;96602.19;4975503;28;20041;-74
2022/09/02 09:45:42;;;;;;;5.18;1.75;;;;;;;19.53;82.66;96603.88;4991008;28;20049;-75
2022/09/02 09:48:27;;;;;;;8.65;1.73;;;;;;;19.82;71.84;96606.31;4990019;28;20047;-76
2022/09/02 09:50:56;;;;;;;5.90;2.05;;;;;;;19.90;82.10;96600.16;4976510;28;20038;-74
2022/09/02 09:53:25;;;;;;;7.68;2.17;;;;;;;19.76;69.77;96604.81;4972312;28;20044;-75
2022/09/02 09:56:14;;;;;;;5.25;2.10;;;;;;;19.67;68.43;96599.28;4976776;28;20073;-74
2022/09/02 09:58:40;;;;;;;6.13;1.98;;;;;;;19.74;67.59;96599.69;4975170;28;20050;-74
2022/09/02 10:01:22;;;;;;;4.80;2.00;;;;;;;19.97;69.97;96583.47;4975722;28;20042;-74
2022/09/02 10:03:49;;;;;;;10.52;1.90;;;;;;;20.28;65.81;96591.72;4975421;28;20046;-74
2022/09/02 10:06:23;;;;;;;9.70;2.00;;;;;;;20.55;76.11;96579.97;4975342;28;20046;-74
2022/09/02 10:09:00;;;;;;;6.35;1.95;;;;;;;20.79;69.21;96590.53;4958500;28;20056;-74
2022/09/02 10:11:33;;;;;;;9.35;2.67;;;;;;;21.05;78.97;96574.34;4988114;28;20525;-74
2022/09/02 10:14:10;;;;;;;10.95;1.80;;;;;;;21.09;73.98;96584.31;4977255;28;20125;-74
2022/09/02 10:16:51;;;;;;;4.60;1.90;;;;;;;20.91;58.22;96587.22;4974538;28;20157;-74
2022/09/02 10:20:02;;;;;;;4.57;1.95;;;;;;;20.91;75.77;96570.91;4975296;28;20566;-74
2022/09/02 10:22:48;;;;;;;6.55;2.38;;;;;;;21.41;77.23;96587.81;4969585;28;20359;-74
2022/09/02 10:25:31;;;;;;;8.48;2.40;;;;;;;21.62;53.23;96575.22;4972890;28;20116;-74
2022/09/02 10:28:36;;;;;;;3.58;1.92;;;;;;;21.67;50.52;96577.81;4986449;28;20057;-74
2022/09/02 10:31:13;;;;;;;6.53;2.08;;;;;;;21.88;52.73;96572.56;4974354;28;20065;-74
2022/09/02 10:34:05;;;;;;;8.23;1.65;;;;;;;22.41;44.48;96562.50;4974560;28;20042;-74
2022/09/02 10:36:36;;;;;;;5.60;2.03;;;;;;;22.68;56.51;96562.16;4974004;28;20501;-74
2022/09/02 10:39:27;;;;;;;6.20;1.83;;;;;;;23.69;44.42;96556.22;4976614;28;20046;-74
2022/09/02 10:42:01;;;;;;;6.50;2.05;;;;;;;24.97;41.93;96550.03;4975131;28;20042;-75
2022/09/02 10:44:32;;;;;;;4.70;1.23;;;;;;;23.79;38.61;96544.91;4957884;28;20057;-75
2022/09/02 10:47:23;;;;;;;6.55;1.90;;;;;;;25.64;42.19;96537.78;4974939;28;20106;-75
2022/09/02 10:50:02;;;;;;;7.80;2.15;;;;;;;28.75;31.59;96525.34;4989591;28;20038;-76
2022/09/02 10:53:00;;;;;;;3.90;1.70;;;;;;;28.26;29.22;96539.69;4972652;28;20637;-75
2022/09/02 10:55:40;;;;;;;4.25;1.70;;;;;;;29.86;27.89;96525.25;4974619;28;20038;-75
2022/09/02 10:58:29;;;;;;;6.18;2.20;;;;;;;31.91;26.46;96518.00;4974960;28;20383;-75
2022/09/02 11:00:56;;;;;;;5.15;2.08;;;;;;;32.68;27.29;96519.56;4976683;28;20101;-75
2022/09/02 11:03:35;;;;;;;4.80;1.75;;;;;;;33.49;24.51;96510.66;4986133;28;20247;-75
2022/09/02 11:06:07;;;;;;;;;;;;;;;31.34;24.65;96508.09;4976504;28;20050;-75
2022/09/02 11:08:47;;;;;;;11.15;3.63;;;;;;;27.58;29.71;96518.09;4955294;28;20402;-75
2022/09/02 11:11:20;;;;;;;7.45;2.17;;;;;;;26.48;30.61;96513.31;4972257;28;20703;-75
2022/09/02 11:13:51;;;;;;;2.95;1.60;;;;;;;29.10;26.70;96508.69;4976745;28;20074;-75
2022/09/02 11:16:23;;;;;;;10.63;2.13;;;;;;;32.19;24.05;96503.53;4974548;28;20054;-75
2022/09/02 11:19:04;;;;;;;2.70;1.50;;;;;;;30.70;23.82;96506.66;4990886;28;20042;-75
2022/09/02 11:21:57;;;;;;;5.40;1.67;;;;;;;30.42;24.15;96501.56;4988676;28;20505;-76
2022/09/02 11:24:46;;;;;;;6.18;1.90;;;;;;;26.98;29.55;96502.84;4973527;28;20046;-75
2022/09/02 11:27:49;;;;;;;10.15;1.48;;;;;;;27.37;29.51;96512.88;4976159;28;20049;-75
2022/09/02 11:30:20;;;;;;;8.45;1.40;;;;;;;27.06;28.09;96516.44;4988481;28;20049;-74
2022/09/02 11:32:53;;;;;;;3.45;1.52;;;;;;;30.11;25.12;96503.56;4971633;28;20327;-73
2022/09/02 11:35:26;;;;;;;6.40;1.73;;;;;;;28.03;27.91;96514.81;4975139;28;20367;-74
2022/09/02 11:38:15;;;;;;;12.95;1.95;;;;;;;29.83;29.54;96509.47;4990436;28;20461;-74
2022/09/02 11:41:11;;;;;;;8.63;1.70;;;;;;;32.22;22.48;96494.44;4956792;28;20086;-74
2022/09/02 11:43:46;;;;;;;5.65;1.50;;;;;;;31.89;22.65;96499.03;4973817;28;20129;-74
2022/09/02 11:46:26;;;;;;;8.65;1.92;;;;;;;31.47;22.73;96500.31;4974350;28;20620;-74
2022/09/02 11:49:28;;;;;;;4.68;1.67;;;;;;;32.16;21.71;96499.59;4973570;28;20126;-74